Time;durP1;ratioP1;P1;durP2;ratioP2;P2;SDS_P1;SDS_P2;PMS_P1;PMS_P2;Temp;Humidity;BMP_temperature;BMP_pressure;BME280_temperature;BME280_humidity;BME280_pressure;Samples;Min_cycle;Max_cycle;Signal;HPM_P1;HPM_P2
2022/04/15 00:01:04;;;;;;;;;2.00;2.00;;;;;21.60;40.85;101911.16;4974634;28;45217;-66
2022/04/15 00:03:30;;;;;;;;;2.00;2.00;;;;;21.60;40.68;101913.81;4974204;28;45450;-66
2022/04/15 00:05:56;;;;;;;;;3.00;2.00;;;;;21.58;40.64;101905.91;4974245;28;45770;-64
2022/04/15 00:08:21;;;;;;;;;2.50;2.00;;;;;21.59;40.88;101907.66;4974413;28;45359;-66
2022/04/15 00:10:46;;;;;;;;;2.00;2.00;;;;;21.58;40.65;101912.97;4974669;28;45287;-62
2022/04/15 00:13:14;;;;;;;;;2.25;2.25;;;;;21.58;40.58;101905.06;4973913;28;46132;-61
2022/04/15 00:15:40;;;;;;;;;2.25;2.25;;;;;21.58;40.81;101905.91;4974401;28;45371;-65
2022/04/15 00:18:05;;;;;;;;;3.50;2.50;;;;;21.57;40.91;101904.19;4974227;28;45355;-67
2022/04/15 00:20:32;;;;;;;;;2.75;2.00;;;;;21.58;40.70;101916.44;4974424;28;45406;-67
2022/04/15 00:22:59;;;;;;;;;2.50;2.00;;;;;21.55;41.15;101906.03;4973905;28;46742;-67
2022/04/15 00:25:25;;;;;;;;;3.25;2.00;;;;;21.57;40.67;101906.81;4973992;28;45341;-67
2022/04/15 00:27:51;;;;;;;;;6.25;3.00;;;;;21.57;40.72;101908.63;4974067;28;45253;-66
2022/04/15 00:30:16;;;;;;;;;3.00;3.00;;;;;21.55;41.05;101910.44;4974251;28;45228;-67
2022/04/15 00:32:41;;;;;;;;;2.00;2.00;;;;;21.55;40.77;101906.03;4974031;28;46385;-67
2022/04/15 00:35:08;;;;;;;;;2.00;2.00;;;;;21.53;40.84;101907.91;4973981;28;45486;-67
2022/04/15 00:37:33;;;;;;;;;2.50;1.00;;;;;21.55;41.03;101908.66;4973849;28;45314;-65
2022/04/15 00:40:01;;;;;;;;;2.00;2.00;;;;;21.54;41.03;101914.88;4974071;28;45302;-66
2022/04/15 00:42:26;;;;;;;;;3.25;1.25;;;;;21.54;40.92;101909.59;4973660;28;45742;-64
2022/04/15 00:44:55;;;;;;;;;2.00;2.00;;;;;21.53;40.97;101910.53;4973791;28;45402;-65
2022/04/15 00:47:56;;;;;;;;;1.50;1.50;;;;;21.53;40.83;101907.03;4973877;28;45753;-64
2022/04/15 00:50:28;;;;;;;;;2.25;2.25;;;;;21.53;40.66;101915.81;4973867;28;45394;-66
2022/04/15 00:52:57;;;;;;;;;2.00;2.00;;;;;21.53;40.79;101918.44;4973335;28;46168;-62
2022/04/15 00:55:23;;;;;;;;;3.00;2.75;;;;;21.52;40.76;101906.19;4972308;28;45676;-65
2022/04/15 00:57:51;;;;;;;;;1.75;1.75;;;;;21.51;41.04;101908.84;4973818;28;45840;-64
2022/04/15 01:00:17;;;;;;;;;1.75;1.75;;;;;21.52;40.80;101911.44;4973804;28;45493;-63
2022/04/15 01:02:44;;;;;;;;;2.00;2.00;;;;;21.52;40.85;101913.22;4976373;28;45449;-67
2022/04/15 01:05:11;;;;;;;;;3.25;2.50;;;;;21.51;40.86;101914.13;4976882;28;45904;-66
2022/04/15 01:07:39;;;;;;;;;1.25;1.25;;;;;21.52;41.07;101915.84;4976660;28;45415;-66
2022/04/15 01:10:07;;;;;;;;;3.00;2.00;;;;;21.51;40.79;101915.00;4976937;28;45450;-66
2022/04/15 01:12:36;;;;;;;;;2.75;2.75;;;;;21.51;40.91;101909.72;4976135;28;47867;-65
2022/04/15 01:15:05;;;;;;;;;2.00;2.00;;;;;21.51;41.00;101915.00;4976471;28;45769;-66
2022/04/15 01:17:33;;;;;;;;;3.00;3.00;;;;;21.51;40.84;101908.84;4976425;28;45398;-67
2022/04/15 01:19:59;;;;;;;;;1.50;1.50;;;;;21.50;40.88;101908.00;4976493;28;45505;-67
2022/04/15 01:22:35;;;;;;;;;1.25;1.25;;;;;21.51;40.84;101908.84;4976340;28;45403;-65
2022/04/15 01:25:01;;;;;;;;;2.00;2.00;;;;;21.50;41.05;101915.09;4976394;28;45786;-65
2022/04/15 01:27:28;;;;;;;;;3.25;3.25;;;;;21.49;41.06;101919.47;4976519;28;45311;-66
2022/04/15 01:29:54;;;;;;;;;2.25;2.00;;;;;21.49;40.81;101919.47;4976519;28;45392;-66
2022/04/15 01:32:20;;;;;;;;;1.75;1.75;;;;;21.49;40.68;101921.28;4976118;28;45481;-66
2022/04/15 01:34:45;;;;;;;;;4.00;4.00;;;;;21.49;40.62;101911.56;4976267;28;45715;-59
2022/04/15 01:37:15;;;;;;;;;4.00;4.00;;;;;21.46;40.53;101907.28;4976638;28;45248;-67
2022/04/15 01:39:42;;;;;;;;;2.75;2.00;;;;;21.49;40.98;101910.72;4976802;28;45339;-66
2022/04/15 01:42:11;;;;;;;;;3.00;3.00;;;;;21.49;40.99;101911.56;4976129;28;45264;-67
2022/04/15 01:44:38;;;;;;;;;3.75;2.00;;;;;21.48;40.69;101915.13;4976173;28;45673;-66
2022/04/15 01:47:04;;;;;;;;;2.00;2.00;;;;;21.48;40.75;101920.41;4976085;28;45428;-64
2022/04/15 01:49:29;;;;;;;;;2.00;2.00;;;;;21.48;40.89;101917.75;4976304;28;45426;-66
2022/04/15 01:51:55;;;;;;;;;2.00;2.00;;;;;21.48;40.78;101917.75;4975734;28;45330;-64
2022/04/15 01:54:20;;;;;;;;;3.75;3.75;;;;;21.47;40.82;101913.41;4975781;28;45377;-66
2022/04/15 01:56:45;;;;;;;;;2.00;2.00;;;;;21.47;40.92;101910.78;4976384;28;45405;-65
2022/04/15 01:59:11;;;;;;;;;2.50;2.50;;;;;21.47;40.62;101908.13;4976211;28;45453;-65
2022/04/15 02:01:36;;;;;;;;;3.00;3.00;;;;;21.47;40.92;101913.41;4975700;28;46298;-66
2022/04/15 02:04:02;;;;;;;;;4.00;3.00;;;;;21.47;40.69;101910.78;4975939;28;45352;-65
2022/04/15 02:06:27;;;;;;;;;2.50;2.50;;;;;21.47;40.72;101910.78;4975965;28;45245;-63
2022/04/15 02:08:53;;;;;;;;;2.00;2.00;;;;;21.46;40.86;101907.28;4976152;28;45622;-64
2022/04/15 02:11:19;;;;;;;;;3.00;1.75;;;;;21.47;40.93;101908.13;4975710;28;46288;-65
2022/04/15 02:13:44;;;;;;;;;4.25;2.50;;;;;21.46;41.00;101911.69;4975454;28;45318;-66
2022/04/15 02:16:10;;;;;;;;;3.50;3.00;;;;;21.47;40.83;101914.28;4975880;28;45310;-62
2022/04/15 02:18:36;;;;;;;;;2.00;2.00;;;;;21.46;40.99;101911.69;4975837;28;45561;-67
2022/04/15 02:21:01;;;;;;;;;3.00;3.00;;;;;21.47;40.92;101913.41;4975559;28;46751;-63
2022/04/15 02:23:27;;;;;;;;;3.75;3.00;;;;;21.46;40.82;101912.56;4975611;28;45252;-65
2022/04/15 02:25:52;;;;;;;;;2.75;2.00;;;;;21.45;40.76;101910.84;4975690;28;45319;-66
2022/04/15 02:28:17;;;;;;;;;2.25;2.25;;;;;21.47;40.66;101910.78;4976087;28;45382;-66
2022/04/15 02:30:47;;;;;;;;;3.00;1.75;;;;;21.46;40.82;101916.97;4975533;28;45779;-66
2022/04/15 02:33:13;;;;;;;;;4.00;2.00;;;;;21.46;41.04;101909.06;4975312;28;45681;-66
2022/04/15 02:35:38;;;;;;;;;4.00;3.00;;;;;21.46;41.10;101911.69;4974386;28;45360;-66
2022/04/15 02:38:03;;;;;;;;;1.75;1.75;;;;;21.44;40.80;101911.78;4975873;28;45501;-65
2022/04/15 02:40:29;;;;;;;;;3.50;3.50;;;;;21.46;40.94;101914.34;4975387;28;46207;-54
2022/04/15 02:42:54;;;;;;;;;2.00;2.00;;;;;21.46;40.94;101911.69;4975360;28;45223;-56
2022/04/15 02:45:21;;;;;;;;;2.00;2.00;;;;;21.43;40.85;101907.41;4975405;28;45316;-64
2022/04/15 02:47:47;;;;;;;;;2.00;2.00;;;;;21.45;40.89;101910.84;4976012;28;45236;-63
2022/04/15 02:50:12;;;;;;;;;3.00;3.00;;;;;21.45;40.62;101909.97;4975204;28;45414;-59
2022/04/15 02:52:38;;;;;;;;;3.00;2.50;;;;;21.44;40.80;101919.69;4975278;28;45276;-54
2022/04/15 02:55:04;;;;;;;;;4.00;4.00;;;;;21.45;40.82;101920.53;4975211;28;45409;-65
2022/04/15 02:57:29;;;;;;;;;1.50;1.50;;;;;21.45;40.79;101926.69;4975483;28;45350;-58
2022/04/15 02:59:54;;;;;;;;;3.00;1.00;;;;;21.44;40.89;101918.84;4975243;28;46026;-58
2022/04/15 03:02:20;;;;;;;;;2.50;2.50;;;;;21.44;40.77;101932.03;4975449;28;45480;-55
2022/04/15 03:04:45;;;;;;;;;3.00;2.00;;;;;21.44;41.11;101918.84;4975673;28;45378;-67
2022/04/15 03:07:10;;;;;;;;;3.75;2.00;;;;;21.44;40.69;101929.38;4975532;28;45628;-62
2022/04/15 03:09:36;;;;;;;;;2.50;2.50;;;;;21.43;41.02;101928.50;4974983;28;45379;-67
2022/04/15 03:12:01;;;;;;;;;4.00;2.25;;;;;21.43;40.90;101917.13;4974926;28;45838;-56
2022/04/15 03:14:27;;;;;;;;;2.00;2.00;;;;;21.42;40.98;101912.75;4975036;28;45441;-55
2022/04/15 03:16:52;;;;;;;;;3.00;3.00;;;;;21.43;41.10;101919.75;4975291;28;45374;-56
2022/04/15 03:19:18;;;;;;;;;1.50;1.50;;;;;21.43;40.89;101925.88;4973722;28;46937;-57
2022/04/15 03:21:43;;;;;;;;;2.00;2.00;;;;;21.43;40.77;101917.97;4975073;28;45439;-54
2022/04/15 03:24:08;;;;;;;;;2.50;2.50;;;;;21.42;41.02;101924.16;4973124;28;45399;-65
2022/04/15 03:26:34;;;;;;;;;2.25;2.25;;;;;21.43;41.04;101917.97;4974606;28;45340;-65
2022/04/15 03:28:59;;;;;;;;;2.00;2.00;;;;;21.42;40.65;101923.31;4974688;28;45343;-63
2022/04/15 03:31:24;;;;;;;;;2.00;2.00;;;;;21.44;40.69;101924.13;4974834;28;45292;-66
2022/04/15 03:33:50;;;;;;;;;1.75;1.75;;;;;21.43;40.87;101927.66;4975034;28;47814;-66
2022/04/15 03:36:15;;;;;;;;;2.00;2.00;;;;;21.41;40.88;101924.22;4973757;28;45516;-62
2022/04/15 03:38:41;;;;;;;;;3.00;3.00;;;;;21.43;41.21;101927.66;4974633;28;45331;-66
2022/04/15 03:41:06;;;;;;;;;2.00;2.00;;;;;21.43;40.84;101928.50;4974657;28;45368;-66
2022/04/15 03:43:32;;;;;;;;;1.50;1.50;;;;;21.43;41.15;101925.03;4974898;28;45276;-67
2022/04/15 03:45:58;;;;;;;;;3.00;2.50;;;;;21.44;41.08;101924.13;4975146;28;45406;-64
2022/04/15 03:48:25;;;;;;;;;3.00;3.00;;;;;21.43;41.02;101927.66;4974551;28;45946;-62
2022/04/15 03:50:50;;;;;;;;;2.00;2.00;;;;;21.42;41.05;101921.53;4974886;28;45911;-67
2022/04/15 03:53:16;;;;;;;;;2.00;2.00;;;;;21.42;40.99;101918.03;4974584;28;45416;-62
2022/04/15 03:55:41;;;;;;;;;2.00;2.00;;;;;21.43;41.20;101935.59;4974837;28;45449;-65
2022/04/15 03:58:07;;;;;;;;;1.75;1.75;;;;;21.42;41.21;101931.22;4974332;28;46162;-65
2022/04/15 04:00:32;;;;;;;;;1.25;1.00;;;;;21.42;40.78;101936.50;4974416;28;45269;-62
2022/04/15 04:02:58;;;;;;;;;1.00;1.00;;;;;21.41;40.86;101935.63;4974426;28;45291;-58
2022/04/15 04:05:24;;;;;;;;;4.00;3.00;;;;;21.41;41.04;101937.41;4974662;28;45306;-61
2022/04/15 04:07:50;;;;;;;;;3.00;3.00;;;;;21.42;41.06;101939.13;4974648;28;46686;-65
2022/04/15 04:10:16;;;;;;;;;2.00;2.00;;;;;21.42;40.99;101939.13;4974215;28;45358;-65
2022/04/15 04:12:43;;;;;;;;;1.75;1.75;;;;;21.41;40.93;101935.63;4974262;28;45350;-64
2022/04/15 04:15:09;;;;;;;;;3.75;3.00;;;;;21.41;41.08;101938.25;4974577;28;45505;-62
2022/04/15 04:17:35;;;;;;;;;2.75;2.00;;;;;21.41;40.79;101940.06;4974183;28;46176;-66
2022/04/15 04:20:02;;;;;;;;;4.00;3.00;;;;;21.41;40.67;101935.63;4973979;28;45441;-67
2022/04/15 04:22:28;;;;;;;;;4.25;3.00;;;;;21.40;41.02;101946.25;4974134;28;45244;-65
2022/04/15 04:24:54;;;;;;;;;2.75;2.75;;;;;21.41;41.05;101945.34;4974474;28;45818;-52
2022/04/15 04:27:19;;;;;;;;;3.00;3.00;;;;;21.41;41.12;101945.34;4974281;28;45515;-66
2022/04/15 04:29:45;;;;;;;;;3.00;3.00;;;;;21.42;40.91;101949.69;4974006;28;45967;-67
2022/04/15 04:32:10;;;;;;;;;3.00;3.00;;;;;21.41;40.83;101955.88;4974031;28;45274;-66
2022/04/15 04:34:35;;;;;;;;;4.00;2.00;;;;;21.39;40.88;101949.81;4974235;28;45331;-66
2022/04/15 04:37:01;;;;;;;;;2.00;2.00;;;;;21.40;40.88;101949.72;4975564;28;46094;-67
2022/04/15 04:39:29;;;;;;;;;3.75;3.75;;;;;21.40;40.98;101955.00;4976630;28;45292;-62
2022/04/15 04:41:55;;;;;;;;;3.00;3.00;;;;;21.41;40.96;101958.53;4977178;28;45411;-64
2022/04/15 04:44:21;;;;;;;;;3.75;3.75;;;;;21.41;41.18;101955.88;4977415;28;45502;-58
2022/04/15 04:46:46;;;;;;;;;3.00;3.00;;;;;21.41;41.02;101961.16;4976672;28;45808;-60
2022/04/15 04:49:12;;;;;;;;;3.25;3.25;;;;;21.38;41.51;101953.34;4976819;28;45338;-62
2022/04/15 04:51:37;;;;;;;;;3.50;2.75;;;;;21.40;41.11;101960.28;4976902;28;45265;-64
2022/04/15 04:54:02;;;;;;;;;3.00;3.00;;;;;21.40;41.10;101970.00;4978917;28;45591;-60
2022/04/15 04:56:28;;;;;;;;;4.50;3.00;;;;;21.39;40.96;101971.75;4976636;28;45357;-61
2022/04/15 04:58:53;;;;;;;;;3.00;3.00;;;;;21.40;41.17;101975.25;4976818;28;45278;-60
2022/04/15 05:01:18;;;;;;;;;3.50;3.00;;;;;21.41;41.10;101976.97;4976724;28;45232;-62
2022/04/15 05:03:44;;;;;;;;;3.00;3.00;;;;;21.41;41.10;101976.97;4976886;28;45993;-59
2022/04/15 05:06:09;;;;;;;;;4.00;3.25;;;;;21.40;41.10;101978.75;4975095;28;48531;-59
2022/04/15 05:08:34;;;;;;;;;2.75;2.75;;;;;21.40;41.30;101981.38;4976515;28;45405;-61
2022/04/15 05:11:00;;;;;;;;;5.00;3.25;;;;;21.41;41.03;101984.88;4975249;28;45252;-61
2022/04/15 05:13:25;;;;;;;;;3.00;3.00;;;;;21.41;41.56;101987.53;4976938;28;45236;-63
2022/04/15 05:15:51;;;;;;;;;7.00;5.00;;;;;21.39;41.49;101984.94;4976254;28;46971;-62
2022/04/15 05:18:16;;;;;;;;;5.25;4.00;;;;;21.39;40.96;101989.38;4976190;28;45169;-60
2022/04/15 05:20:41;;;;;;;;;4.25;3.50;;;;;21.38;41.01;101988.53;4976414;28;45219;-58
2022/04/15 05:23:07;;;;;;;;;3.25;3.25;;;;;21.40;40.97;101991.09;4977051;28;45191;-55
2022/04/15 05:25:32;;;;;;;;;5.75;3.00;;;;;21.40;41.30;101991.09;4976269;28;46126;-59
2022/04/15 05:27:58;;;;;;;;;4.00;4.00;;;;;21.40;40.93;101991.09;4974877;28;45414;-53
2022/04/15 05:30:24;;;;;;;;;4.00;3.00;;;;;21.38;41.57;101992.91;4976689;28;45450;-66
2022/04/15 05:32:49;;;;;;;;;3.50;2.75;;;;;21.38;41.10;101998.19;4976316;28;45582;-63
2022/04/15 05:35:14;;;;;;;;;4.00;4.00;;;;;21.38;41.47;101998.19;4976078;28;46654;-55
2022/04/15 05:37:40;;;;;;;;;5.00;4.00;;;;;21.38;41.41;102003.47;4975044;28;45456;-61
2022/04/15 05:40:06;;;;;;;;;3.00;3.00;;;;;21.38;41.70;102006.09;4976270;28;45359;-59
2022/04/15 05:42:31;;;;;;;;;5.25;4.50;;;;;21.39;41.79;102006.03;4976314;28;46097;-59
2022/04/15 05:44:56;;;;;;;;;4.00;4.00;;;;;21.39;41.84;102003.41;4976248;28;45467;-61
2022/04/15 05:47:22;;;;;;;;;5.50;5.00;;;;;21.40;41.44;102006.91;4975435;28;45396;-61
2022/04/15 05:49:47;;;;;;;;;5.00;5.00;;;;;21.40;41.80;102009.53;4975863;28;45260;-55
2022/04/15 05:52:14;;;;;;;;;5.75;5.00;;;;;21.40;41.78;102010.38;4976238;28;45323;-58
2022/04/15 05:54:39;;;;;;;;;4.75;4.75;;;;;21.40;41.88;102012.19;4976028;28;46628;-62
2022/04/15 05:57:06;;;;;;;;;5.75;5.75;;;;;21.40;41.56;102013.03;4975793;28;45211;-67
2022/04/15 05:59:31;;;;;;;;;4.00;4.00;;;;;21.41;41.81;102008.63;4976100;28;45319;-68
2022/04/15 06:01:56;;;;;;;;;6.25;4.25;;;;;21.40;41.65;102006.91;4976411;28;45586;-65
2022/04/15 06:04:22;;;;;;;;;7.25;4.50;;;;;21.40;41.73;102017.47;4975697;28;46139;-67
2022/04/15 06:06:47;;;;;;;;;5.25;4.25;;;;;21.40;41.51;102015.66;4975863;28;45311;-67
2022/04/15 06:09:13;;;;;;;;;5.50;4.25;;;;;21.41;41.54;102021.81;4975906;28;45556;-70
2022/04/15 06:11:41;;;;;;;;;7.50;4.00;;;;;21.41;41.49;102024.44;4975860;28;45429;-59
2022/04/15 06:14:07;;;;;;;;;5.00;5.00;;;;;21.40;41.71;102026.22;4975503;28;45386;-61
2022/04/15 06:16:33;;;;;;;;;7.00;6.00;;;;;21.38;41.71;102029.84;4975712;28;45394;-58
2022/04/15 06:18:59;;;;;;;;;5.00;5.00;;;;;21.41;41.51;102029.72;4974791;28;45494;-57
2022/04/15 06:21:25;;;;;;;;;5.75;4.25;;;;;21.41;41.69;102035.84;4974631;28;45548;-61
2022/04/15 06:23:50;;;;;;;;;2.75;2.75;;;;;21.41;41.52;102035.84;4975646;28;46192;-59
2022/04/15 06:26:16;;;;;;;;;5.00;5.00;;;;;21.42;42.18;102042.00;4974348;28;45299;-57
2022/04/15 06:28:41;;;;;;;;;7.00;5.75;;;;;21.43;41.93;102041.09;4975620;28;45331;-61
2022/04/15 06:31:06;;;;;;;;;5.00;5.00;;;;;21.42;41.44;102045.47;4974567;28;45339;-63
2022/04/15 06:33:32;;;;;;;;;5.25;4.50;;;;;21.42;41.44;102042.00;4975332;28;46126;-58
2022/04/15 06:36:00;;;;;;;;;5.00;5.00;;;;;21.42;41.48;102042.84;4975634;28;45233;-66
2022/04/15 06:38:25;;;;;;;;;4.75;4.00;;;;;21.42;41.64;102042.00;4975851;28;45518;-62
2022/04/15 06:40:51;;;;;;;;;6.50;5.00;;;;;21.41;41.25;102051.66;4975937;28;45322;-63
2022/04/15 06:43:16;;;;;;;;;5.00;3.75;;;;;21.42;41.69;102047.28;4975326;28;45955;-60
2022/04/15 06:45:41;;;;;;;;;3.25;3.25;;;;;21.41;41.68;102046.41;4975414;28;45511;-51
2022/04/15 06:48:07;;;;;;;;;3.75;3.75;;;;;21.41;41.72;102051.66;4974304;28;45421;-56
2022/04/15 06:50:32;;;;;;;;;7.50;5.75;;;;;21.43;41.47;102054.28;4975512;28;45334;-64
2022/04/15 06:52:58;;;;;;;;;5.50;5.50;;;;;21.42;41.55;102047.28;4974197;28;46067;-61
2022/04/15 06:55:23;;;;;;;;;5.25;5.25;;;;;21.43;41.49;102054.28;4973910;28;45476;-61
2022/04/15 06:57:49;;;;;;;;;5.25;4.00;;;;;21.42;41.58;102050.75;4975245;28;45775;-61
2022/04/15 07:00:14;;;;;;;;;4.50;4.00;;;;;21.44;41.57;102056.00;4975239;28;45318;-58
2022/04/15 07:02:41;;;;;;;;;7.25;5.50;;;;;21.45;41.82;102055.03;4974883;28;46484;-59
2022/04/15 07:05:09;;;;;;;;;9.25;5.75;;;;;21.44;41.60;102048.06;4975089;28;45228;-54
2022/04/15 07:07:35;;;;;;;;;6.00;4.00;;;;;21.45;41.79;102055.03;4975230;28;45296;-61
2022/04/15 07:10:01;;;;;;;;;4.75;4.75;;;;;21.45;41.80;102053.28;4975588;28;45536;-62
2022/04/15 07:12:26;;;;;;;;;7.00;7.00;;;;;21.46;41.55;102056.75;4974836;28;46726;-59
2022/04/15 07:14:52;;;;;;;;;6.00;4.25;;;;;21.45;41.57;102053.28;4974882;28;45437;-59
2022/04/15 07:17:17;;;;;;;;;6.75;5.00;;;;;21.45;41.40;102048.00;4975135;28;45884;-65
2022/04/15 07:19:43;;;;;;;;;5.00;5.00;;;;;21.46;41.33;102064.69;4975117;28;45772;-61
2022/04/15 07:22:08;;;;;;;;;4.25;4.25;;;;;21.47;41.89;102061.13;4973774;28;45805;-66
2022/04/15 07:24:33;;;;;;;;;5.50;5.50;;;;;21.47;41.54;102063.75;4974546;28;45513;-53
2022/04/15 07:27:00;;;;;;;;;5.00;5.00;;;;;21.47;41.80;102062.00;4974899;28;45226;-66
2022/04/15 07:29:26;;;;;;;;;5.00;5.00;;;;;21.50;41.48;102065.44;4975121;28;45182;-65
2022/04/15 07:31:54;;;;;;;;;7.00;6.00;;;;;21.51;41.56;102068.00;4974340;28;46943;-67
2022/04/15 07:34:20;;;;;;;;;6.50;5.75;;;;;21.53;41.43;102070.56;4974512;28;45796;-63
2022/04/15 07:36:53;;;;;;;;;4.00;4.00;;;;;21.55;41.98;102069.56;4974733;28;45397;-65
2022/04/15 07:39:20;;;;;;;;;6.00;6.00;;;;;21.57;41.69;102073.00;4974992;28;45342;-67
2022/04/15 07:41:45;;;;;;;;;5.00;5.00;;;;;21.58;41.76;102069.47;4974462;28;45401;-58
2022/04/15 07:44:12;;;;;;;;;3.75;3.75;;;;;21.59;41.71;102065.94;4974606;28;45352;-63
2022/04/15 07:46:38;;;;;;;;;6.00;6.00;;;;;21.60;41.39;102062.38;4974792;28;45446;-65
2022/04/15 07:49:04;;;;;;;;;3.00;3.00;;;;;21.64;41.63;102062.25;4975223;28;45289;-68
2022/04/15 07:51:31;;;;;;;;;7.25;5.75;;;;;21.65;41.70;102074.53;4974638;28;45348;-61
2022/04/15 07:53:56;;;;;;;;;8.75;6.00;;;;;21.67;41.21;102072.66;4974590;28;45349;-66
2022/04/15 07:56:22;;;;;;;;;5.75;4.50;;;;;21.67;41.84;102072.66;4974600;28;45310;-65
2022/04/15 07:58:48;;;;;;;;;6.25;4.25;;;;;21.67;41.69;102068.28;4974678;28;45495;-63
2022/04/15 08:01:13;;;;;;;;;4.25;4.00;;;;;21.68;41.60;102069.13;4975768;28;45452;-67
2022/04/15 08:03:39;;;;;;;;;5.25;5.25;;;;;21.68;41.58;102070.00;4974279;28;45359;-53
2022/04/15 08:06:05;;;;;;;;;5.25;5.25;;;;;21.68;41.30;102079.66;4974700;28;45297;-62
2022/04/15 08:08:31;;;;;;;;;6.25;5.00;;;;;21.68;41.36;102069.13;4974859;28;45597;-58
2022/04/15 08:10:57;;;;;;;;;4.75;4.75;;;;;21.68;41.50;102071.75;4973303;28;46051;-59
2022/04/15 08:13:23;;;;;;;;;5.75;5.00;;;;;21.67;41.50;102068.28;4974198;28;45778;-57
2022/04/15 08:15:53;;;;;;;;;5.00;5.00;;;;;21.68;41.45;102069.13;4974136;28;45280;-58
2022/04/15 08:18:18;;;;;;;;;4.75;4.25;;;;;21.69;41.57;102073.47;4974288;28;46228;-64
2022/04/15 08:20:44;;;;;;;;;6.25;4.25;;;;;21.68;41.52;102075.28;4974286;28;46653;-60
2022/04/15 08:23:09;;;;;;;;;5.75;4.25;;;;;21.67;41.44;102076.19;4974296;28;45346;-65
2022/04/15 08:25:38;;;;;;;;;5.50;5.50;;;;;21.69;41.37;102077.00;4974643;28;45377;-66
2022/04/15 08:28:05;;;;;;;;;7.00;5.25;;;;;21.69;41.34;102070.84;4973417;28;45292;-64
2022/04/15 08:30:33;;;;;;;;;8.75;6.75;;;;;21.69;41.41;102074.34;4972679;28;45266;-63
2022/04/15 08:32:59;;;;;;;;;7.50;7.50;;;;;21.70;41.04;102078.72;4973788;28;45901;-56
2022/04/15 08:35:24;;;;;;;;;9.50;7.25;;;;;21.72;41.20;102082.13;4973797;28;45406;-51
2022/04/15 08:37:50;;;;;;;;;5.75;4.75;;;;;21.71;41.01;102080.44;4972766;28;45324;-55
2022/04/15 08:40:15;;;;;;;;;7.50;6.00;;;;;21.70;41.07;102083.09;4972027;28;46039;-53
2022/04/15 08:42:42;;;;;;;;;6.75;6.75;;;;;21.71;40.94;102083.06;4973627;28;45484;-55
2022/04/15 08:45:08;;;;;;;;;5.75;5.00;;;;;21.70;40.89;102086.63;4973873;28;45421;-53
2022/04/15 08:47:36;;;;;;;;;9.00;6.00;;;;;21.70;40.67;102083.09;4974147;28;45296;-52
2022/04/15 08:50:03;;;;;;;;;11.00;7.00;;;;;21.71;40.97;102084.84;4972183;28;47175;-57
2022/04/15 08:52:29;;;;;;;;;8.25;6.75;;;;;21.68;40.75;102077.91;4972242;28;45768;-64
2022/04/15 08:54:54;;;;;;;;;6.75;6.75;;;;;21.69;41.10;102087.53;4973699;28;45479;-65
2022/04/15 08:57:20;;;;;;;;;11.00;7.00;;;;;21.69;40.70;102078.75;4973766;28;45493;-60
2022/04/15 08:59:46;;;;;;;;;5.75;5.00;;;;;21.69;40.74;102086.66;4973369;28;46832;-61
2022/04/15 09:02:14;;;;;;;;;10.00;7.00;;;;;21.66;40.18;102092.94;4973377;28;45785;-61
2022/04/15 09:04:39;;;;;;;;;6.75;6.00;;;;;21.64;40.13;102091.28;4973495;28;45360;-61
2022/04/15 09:07:05;;;;;;;;;4.50;3.75;;;;;21.60;40.10;102094.03;4993807;28;45418;-57
2022/04/15 09:09:32;;;;;;;;;7.25;7.00;;;;;21.59;39.97;102094.97;5075670;27;46370;-58
2022/04/15 09:11:59;;;;;;;;;6.75;5.00;;;;;21.58;39.72;102095.84;5075592;27;45235;-60
2022/04/15 09:14:27;;;;;;;;;7.75;6.50;;;;;21.54;39.92;102091.63;5075668;27;45408;-59
2022/04/15 09:16:53;;;;;;;;;5.50;5.50;;;;;21.53;40.43;102100.47;5075920;27;45481;-55
2022/04/15 09:19:19;;;;;;;;;6.00;5.75;;;;;21.51;40.12;102097.00;5075443;27;46207;-58
2022/04/15 09:21:55;;;;;;;;;5.50;5.00;;;;;21.53;40.10;102097.81;5075522;27;45832;-58
2022/04/15 09:24:33;;;;;;;;;4.75;4.00;;;;;21.52;39.94;102096.09;5079222;27;45303;-56
2022/04/15 09:27:05;;;;;;;;;6.00;6.00;;;;;21.51;39.92;102094.38;5079364;27;45574;-58
2022/04/15 09:29:35;;;;;;;;;5.25;5.25;;;;;21.49;40.34;102095.38;5094554;27;45520;-60
2022/04/15 09:32:09;;;;;;;;;4.25;4.25;;;;;21.50;40.01;102097.94;5078789;27;45762;-58
2022/04/15 09:34:55;;;;;;;;;4.75;3.75;;;;;21.51;40.14;102097.00;5078161;28;45451;-59
2022/04/15 09:37:22;;;;;;;;;2.75;2.75;;;;;21.53;40.33;102089.91;5079560;27;45429;-61
2022/04/15 09:40:06;;;;;;;;;3.75;3.25;;;;;21.53;39.91;102095.19;5078965;27;47419;-59
2022/04/15 09:42:34;;;;;;;;;3.75;3.00;;;;;21.55;40.18;102090.69;5078604;27;45803;-63
2022/04/15 09:45:24;;;;;;;;;5.50;4.00;;;;;21.55;40.12;102095.94;5078939;27;45413;-62
2022/04/15 09:47:51;;;;;;;;;3.50;3.50;;;;;21.57;40.03;102093.28;5079166;27;45868;-64
2022/04/15 09:50:34;;;;;;;;;2.25;2.25;;;;;21.58;39.92;102092.34;5078415;27;45696;-62
2022/04/15 09:53:26;;;;;;;;;6.00;3.00;;;;;21.59;40.29;102086.19;5078302;27;45467;-63
2022/04/15 09:55:52;;;;;;;;;5.25;3.00;;;;;21.61;40.06;102095.75;5075352;27;45607;-61
2022/04/15 09:58:28;;;;;;;;;3.00;3.00;;;;;21.60;40.22;102088.75;5078973;27;45280;-61
2022/04/15 10:00:56;;;;;;;;;4.00;3.00;;;;;21.62;39.86;102084.28;5078266;27;47151;-63
2022/04/15 10:03:23;;;;;;;;;3.00;3.00;;;;;21.65;40.17;102093.84;5078447;27;45420;-63
2022/04/15 10:05:50;;;;;;;;;5.00;4.00;;;;;21.65;40.13;102085.94;5052211;27;45231;-63
2022/04/15 10:08:19;;;;;;;;;3.50;2.75;;;;;21.65;39.97;102088.56;5078779;27;45354;-62
2022/04/15 10:10:45;;;;;;;;;6.50;4.00;;;;;21.67;39.81;102085.88;5078184;27;45469;-61
2022/04/15 10:13:13;;;;;;;;;4.25;3.25;;;;;21.68;40.02;102085.81;5022955;27;45277;-60
2022/04/15 10:15:39;;;;;;;;;2.25;2.25;;;;;21.69;39.78;102081.38;4976032;28;45369;-61
2022/04/15 10:18:05;;;;;;;;;2.50;2.50;;;;;21.69;39.95;102084.91;4975438;28;45260;-65
2022/04/15 10:20:32;;;;;;;;;3.00;3.00;;;;;21.71;39.74;102090.97;4975029;28;45942;-62
2022/04/15 10:23:03;;;;;;;;;3.00;3.00;;;;;21.71;39.74;102080.44;4975366;28;45755;-63
2022/04/15 10:25:30;;;;;;;;;2.50;2.00;;;;;21.72;39.83;102082.13;4975221;28;46261;-62
2022/04/15 10:28:13;;;;;;;;;4.25;4.00;;;;;21.72;40.05;102079.47;4974229;28;45252;-62
2022/04/15 10:30:44;;;;;;;;;4.00;3.00;;;;;21.72;39.62;102070.72;4975615;28;45277;-63
2022/04/15 10:33:09;;;;;;;;;7.00;5.00;;;;;21.73;39.83;102073.28;4975429;28;45422;-63
2022/04/15 10:35:35;;;;;;;;;4.00;2.25;;;;;21.73;39.84;102075.91;4974798;28;45386;-63
2022/04/15 10:38:12;;;;;;;;;1.25;1.25;;;;;21.73;39.77;102061.88;4974224;28;45570;-61
2022/04/15 10:40:43;;;;;;;;;2.75;2.50;;;;;21.72;39.81;102065.44;4975573;28;45306;-63
2022/04/15 10:43:22;;;;;;;;;4.50;2.75;;;;;21.71;39.71;102056.69;4975601;28;45308;-61
2022/04/15 10:45:51;;;;;;;;;3.50;3.00;;;;;21.72;39.81;102071.56;4974410;28;45421;-62
2022/04/15 10:48:29;;;;;;;;;3.00;3.00;;;;;21.72;39.38;102068.09;4975246;28;45621;-60
2022/04/15 10:50:55;;;;;;;;;4.00;4.00;;;;;21.71;39.36;102069.00;4976091;28;45371;-60
2022/04/15 10:53:20;;;;;;;;;5.75;4.00;;;;;21.72;39.33;102068.09;4975034;28;45367;-62
2022/04/15 10:55:49;;;;;;;;;3.75;3.25;;;;;21.72;39.72;102070.72;4975267;28;45362;-62
2022/04/15 10:58:16;;;;;;;;;4.25;3.00;;;;;21.72;39.50;102066.28;4975277;28;45389;-63
2022/04/15 11:03:31;;;;;;;;;3.00;1.75;;;;;21.72;39.63;102065.44;4975012;28;45316;-63
2022/04/15 11:06:04;;;;;;;;;4.00;3.00;;;;;21.72;39.67;102068.91;4975096;28;45392;-63
2022/04/15 11:08:45;;;;;;;;;3.00;3.00;;;;;21.72;39.36;102060.16;4975139;28;45644;-62
2022/04/15 11:11:10;;;;;;;;;2.75;2.00;;;;;21.70;39.77;102051.44;4975260;28;45449;-63
2022/04/15 11:13:43;;;;;;;;;4.00;3.00;;;;;21.73;39.35;102057.44;4974767;28;45258;-63
2022/04/15 11:16:15;;;;;;;;;2.25;2.00;;;;;21.73;39.37;102054.81;4974994;28;45307;-63
2022/04/15 11:18:43;;;;;;;;;3.00;3.00;;;;;21.73;39.28;102053.97;4975153;28;45426;-63
2022/04/15 11:21:19;;;;;;;;;2.00;2.00;;;;;21.73;39.29;102046.06;4974934;28;46176;-63
2022/04/15 11:23:47;;;;;;;;;3.00;3.00;;;;;21.73;39.38;102046.91;4974779;28;45732;-63
2022/04/15 11:26:14;;;;;;;;;2.00;2.00;;;;;21.73;39.05;102049.53;4975223;28;45392;-62